7AZ0 weather

Aviation Ramp Area Heliport
Scottsdale, Arizona, United States

Public forecast

Using degrees Fahrenheit for public forecast. Weather courtesy of forecast.io.

Closest aviation weather report (METAR) to Aviation Ramp Area Heliport

Closest report is Scottsdale Airport, 0.6 nm (1.0 km) ESE. Retrieved 2020/06/06 22:53 UTC (48 minutes ago):

KSDL 062253Z VRB04KT 10SM CLR 32/08 A2977 RMK AO2 SLP056 T03170078

Closest aviation forecast (TAF) to Aviation Ramp Area Heliport

Closest forecast is Scottsdale Airport, 0.6 nm (1.0 km) ESE. Retrieved 2020/06/06 18:42 UTC (5 hours ago):

TAF KSDL 061740Z 0618/0718 19005KT P6SM FEW050 FM062100 23008KT P6SM FEW050 FM070500 VRB03KT P6SM SKC